sensor_id;sensor_type;location;lat;lon;timestamp;P1;durP1;ratioP1;P2;durP2;ratioP2
48327;SDS011;34136;51.022;7.082;2022-09-09T00:02:01;5.35;;;1.50;;
48327;SDS011;34136;51.022;7.082;2022-09-09T00:05:04;7.47;;;1.65;;
48327;SDS011;34136;51.022;7.082;2022-09-09T00:08:18;5.20;;;1.23;;
48327;SDS011;34136;51.022;7.082;2022-09-09T00:11:07;3.92;;;1.20;;
48327;SDS011;34136;51.022;7.082;2022-09-09T00:13:58;4.32;;;1.25;;
48327;SDS011;34136;51.022;7.082;2022-09-09T00:16:54;3.63;;;1.20;;
48327;SDS011;34136;51.022;7.082;2022-09-09T00:19:45;5.75;;;1.60;;
48327;SDS011;34136;51.022;7.082;2022-09-09T00:22:33;3.90;;;1.10;;
48327;SDS011;34136;51.022;7.082;2022-09-09T00:25:34;4.18;;;1.40;;
48327;SDS011;34136;51.022;7.082;2022-09-09T00:28:27;4.10;;;1.20;;
48327;SDS011;34136;51.022;7.082;2022-09-09T00:31:20;5.22;;;1.35;;
48327;SDS011;34136;51.022;7.082;2022-09-09T00:34:11;5.53;;;1.42;;
48327;SDS011;34136;51.022;7.082;2022-09-09T00:37:01;4.47;;;1.30;;
48327;SDS011;34136;51.022;7.082;2022-09-09T00:39:48;5.20;;;1.45;;
48327;SDS011;34136;51.022;7.082;2022-09-09T00:42:43;3.05;;;1.05;;
48327;SDS011;34136;51.022;7.082;2022-09-09T00:55:03;5.72;;;1.27;;
48327;SDS011;34136;51.022;7.082;2022-09-09T00:58:00;3.88;;;1.23;;
48327;SDS011;34136;51.022;7.082;2022-09-09T01:00:50;3.30;;;1.38;;
48327;SDS011;34136;51.022;7.082;2022-09-09T01:03:49;8.10;;;1.50;;
48327;SDS011;34136;51.022;7.082;2022-09-09T01:06:38;4.18;;;1.20;;
48327;SDS011;34136;51.022;7.082;2022-09-09T01:09:41;4.35;;;1.33;;
48327;SDS011;34136;51.022;7.082;2022-09-09T01:12:43;4.03;;;1.20;;
48327;SDS011;34136;51.022;7.082;2022-09-09T01:15:37;5.75;;;1.55;;
48327;SDS011;34136;51.022;7.082;2022-09-09T01:18:27;4.80;;;1.10;;
48327;SDS011;34136;51.022;7.082;2022-09-09T01:21:36;4.15;;;1.20;;
48327;SDS011;34136;51.022;7.082;2022-09-09T01:24:38;4.75;;;1.38;;
48327;SDS011;34136;51.022;7.082;2022-09-09T01:27:37;3.17;;;1.38;;
48327;SDS011;34136;51.022;7.082;2022-09-09T01:30:25;4.07;;;1.33;;
48327;SDS011;34136;51.022;7.082;2022-09-09T01:33:14;6.15;;;1.40;;
48327;SDS011;34136;51.022;7.082;2022-09-09T01:36:04;4.45;;;1.15;;
48327;SDS011;34136;51.022;7.082;2022-09-09T01:39:03;4.45;;;1.10;;
48327;SDS011;34136;51.022;7.082;2022-09-09T01:41:50;4.82;;;1.20;;
48327;SDS011;34136;51.022;7.082;2022-09-09T01:44:38;5.18;;;1.60;;
48327;SDS011;34136;51.022;7.082;2022-09-09T01:47:25;4.80;;;1.40;;
48327;SDS011;34136;51.022;7.082;2022-09-09T01:50:20;4.85;;;1.30;;
48327;SDS011;34136;51.022;7.082;2022-09-09T01:53:07;5.28;;;1.25;;
48327;SDS011;34136;51.022;7.082;2022-09-09T02:08:23;5.82;;;1.50;;
48327;SDS011;34136;51.022;7.082;2022-09-09T02:11:22;4.32;;;1.30;;
48327;SDS011;34136;51.022;7.082;2022-09-09T02:14:24;5.90;;;1.30;;
48327;SDS011;34136;51.022;7.082;2022-09-09T02:17:18;2.38;;;1.00;;
48327;SDS011;34136;51.022;7.082;2022-09-09T02:20:20;5.05;;;1.38;;
48327;SDS011;34136;51.022;7.082;2022-09-09T02:23:13;4.38;;;1.40;;
48327;SDS011;34136;51.022;7.082;2022-09-09T02:26:02;4.53;;;1.20;;
48327;SDS011;34136;51.022;7.082;2022-09-09T02:28:49;5.10;;;1.20;;
48327;SDS011;34136;51.022;7.082;2022-09-09T02:31:38;6.15;;;1.30;;
48327;SDS011;34136;51.022;7.082;2022-09-09T02:34:34;4.30;;;1.52;;
48327;SDS011;34136;51.022;7.082;2022-09-09T02:37:26;3.60;;;1.20;;
48327;SDS011;34136;51.022;7.082;2022-09-09T02:40:26;5.55;;;1.42;;
48327;SDS011;34136;51.022;7.082;2022-09-09T02:43:19;4.82;;;1.25;;
48327;SDS011;34136;51.022;7.082;2022-09-09T02:46:21;5.57;;;1.48;;
48327;SDS011;34136;51.022;7.082;2022-09-09T02:52:14;4.13;;;1.50;;
48327;SDS011;34136;51.022;7.082;2022-09-09T02:55:06;4.38;;;1.30;;
48327;SDS011;34136;51.022;7.082;2022-09-09T02:58:06;3.70;;;1.45;;
48327;SDS011;34136;51.022;7.082;2022-09-09T03:00:56;5.03;;;1.45;;
48327;SDS011;34136;51.022;7.082;2022-09-09T03:03:43;6.32;;;1.77;;
48327;SDS011;34136;51.022;7.082;2022-09-09T03:06:34;4.82;;;1.50;;
48327;SDS011;34136;51.022;7.082;2022-09-09T03:09:30;8.93;;;1.50;;
48327;SDS011;34136;51.022;7.082;2022-09-09T03:12:16;6.35;;;1.40;;
48327;SDS011;34136;51.022;7.082;2022-09-09T03:15:02;5.00;;;1.55;;
48327;SDS011;34136;51.022;7.082;2022-09-09T03:17:49;4.53;;;1.63;;
48327;SDS011;34136;51.022;7.082;2022-09-09T03:20:35;5.53;;;1.33;;
48327;SDS011;34136;51.022;7.082;2022-09-09T03:23:22;4.57;;;1.45;;
48327;SDS011;34136;51.022;7.082;2022-09-09T03:26:09;6.80;;;1.55;;
48327;SDS011;34136;51.022;7.082;2022-09-09T03:29:03;7.80;;;1.48;;
48327;SDS011;34136;51.022;7.082;2022-09-09T03:31:50;4.13;;;1.30;;
48327;SDS011;34136;51.022;7.082;2022-09-09T03:34:37;3.67;;;1.27;;
48327;SDS011;34136;51.022;7.082;2022-09-09T03:37:23;6.60;;;1.65;;
48327;SDS011;34136;51.022;7.082;2022-09-09T03:40:10;7.95;;;1.52;;
48327;SDS011;34136;51.022;7.082;2022-09-09T03:42:57;5.28;;;1.55;;
48327;SDS011;34136;51.022;7.082;2022-09-09T03:45:48;6.72;;;1.67;;
48327;SDS011;34136;51.022;7.082;2022-09-09T03:48:34;3.08;;;1.10;;
48327;SDS011;34136;51.022;7.082;2022-09-09T03:51:20;9.50;;;1.65;;
48327;SDS011;34136;51.022;7.082;2022-09-09T03:54:07;4.60;;;1.45;;
48327;SDS011;34136;51.022;7.082;2022-09-09T03:56:54;6.05;;;1.58;;
48327;SDS011;34136;51.022;7.082;2022-09-09T03:59:42;7.78;;;1.83;;
48327;SDS011;34136;51.022;7.082;2022-09-09T04:02:29;4.70;;;1.42;;
48327;SDS011;34136;51.022;7.082;2022-09-09T04:05:15;6.65;;;1.63;;
48327;SDS011;34136;51.022;7.082;2022-09-09T04:08:03;6.50;;;2.47;;
48327;SDS011;34136;51.022;7.082;2022-09-09T04:10:50;4.38;;;1.33;;
48327;SDS011;34136;51.022;7.082;2022-09-09T04:13:37;7.07;;;1.50;;
48327;SDS011;34136;51.022;7.082;2022-09-09T04:16:24;3.60;;;1.30;;
48327;SDS011;34136;51.022;7.082;2022-09-09T04:19:11;6.35;;;1.90;;
48327;SDS011;34136;51.022;7.082;2022-09-09T04:22:00;5.32;;;1.45;;
48327;SDS011;34136;51.022;7.082;2022-09-09T04:24:46;5.03;;;1.42;;
48327;SDS011;34136;51.022;7.082;2022-09-09T04:27:33;5.30;;;1.40;;
48327;SDS011;34136;51.022;7.082;2022-09-09T04:30:20;8.32;;;1.88;;
48327;SDS011;34136;51.022;7.082;2022-09-09T04:33:07;5.70;;;1.60;;
48327;SDS011;34136;51.022;7.082;2022-09-09T04:35:54;6.70;;;1.77;;
48327;SDS011;34136;51.022;7.082;2022-09-09T04:38:42;6.55;;;1.58;;
48327;SDS011;34136;51.022;7.082;2022-09-09T04:41:29;6.53;;;1.38;;
48327;SDS011;34136;51.022;7.082;2022-09-09T04:44:15;5.90;;;1.60;;
48327;SDS011;34136;51.022;7.082;2022-09-09T04:47:01;4.43;;;1.45;;
48327;SDS011;34136;51.022;7.082;2022-09-09T04:49:48;4.55;;;1.60;;
48327;SDS011;34136;51.022;7.082;2022-09-09T04:52:34;5.13;;;1.52;;
48327;SDS011;34136;51.022;7.082;2022-09-09T04:55:21;8.15;;;1.75;;
48327;SDS011;34136;51.022;7.082;2022-09-09T04:58:08;6.15;;;1.50;;
48327;SDS011;34136;51.022;7.082;2022-09-09T05:00:54;5.97;;;1.50;;
48327;SDS011;34136;51.022;7.082;2022-09-09T05:03:41;4.32;;;1.52;;
48327;SDS011;34136;51.022;7.082;2022-09-09T05:06:30;5.65;;;1.60;;
48327;SDS011;34136;51.022;7.082;2022-09-09T05:09:19;5.35;;;1.48;;
48327;SDS011;34136;51.022;7.082;2022-09-09T05:12:06;6.15;;;1.73;;
48327;SDS011;34136;51.022;7.082;2022-09-09T05:14:55;5.18;;;1.60;;
48327;SDS011;34136;51.022;7.082;2022-09-09T05:17:41;7.53;;;1.30;;
48327;SDS011;34136;51.022;7.082;2022-09-09T05:20:28;7.28;;;1.45;;
48327;SDS011;34136;51.022;7.082;2022-09-09T05:23:15;5.85;;;1.20;;
48327;SDS011;34136;51.022;7.082;2022-09-09T05:26:02;5.15;;;1.23;;
48327;SDS011;34136;51.022;7.082;2022-09-09T05:28:49;6.03;;;1.45;;
48327;SDS011;34136;51.022;7.082;2022-09-09T05:31:35;6.88;;;1.70;;
48327;SDS011;34136;51.022;7.082;2022-09-09T05:34:28;7.47;;;1.73;;
48327;SDS011;34136;51.022;7.082;2022-09-09T05:37:15;4.45;;;1.50;;
48327;SDS011;34136;51.022;7.082;2022-09-09T05:40:01;7.38;;;1.70;;
48327;SDS011;34136;51.022;7.082;2022-09-09T05:42:48;7.63;;;1.75;;
48327;SDS011;34136;51.022;7.082;2022-09-09T05:45:35;6.30;;;1.77;;
48327;SDS011;34136;51.022;7.082;2022-09-09T05:48:22;4.93;;;1.50;;
48327;SDS011;34136;51.022;7.082;2022-09-09T05:51:09;5.45;;;1.63;;
48327;SDS011;34136;51.022;7.082;2022-09-09T05:53:58;5.70;;;1.65;;
48327;SDS011;34136;51.022;7.082;2022-09-09T05:56:46;7.60;;;1.65;;
48327;SDS011;34136;51.022;7.082;2022-09-09T05:59:32;6.80;;;1.80;;
48327;SDS011;34136;51.022;7.082;2022-09-09T06:02:20;4.70;;;1.40;;
48327;SDS011;34136;51.022;7.082;2022-09-09T06:05:06;7.43;;;1.48;;
48327;SDS011;34136;51.022;7.082;2022-09-09T06:07:53;6.30;;;1.83;;
48327;SDS011;34136;51.022;7.082;2022-09-09T06:10:39;6.53;;;1.80;;
48327;SDS011;34136;51.022;7.082;2022-09-09T06:13:26;7.20;;;1.55;;
48327;SDS011;34136;51.022;7.082;2022-09-09T06:16:13;6.75;;;1.70;;
48327;SDS011;34136;51.022;7.082;2022-09-09T06:19:02;7.38;;;1.50;;
48327;SDS011;34136;51.022;7.082;2022-09-09T06:21:49;5.38;;;1.45;;
48327;SDS011;34136;51.022;7.082;2022-09-09T06:24:36;5.18;;;1.60;;
48327;SDS011;34136;51.022;7.082;2022-09-09T06:27:22;5.93;;;1.30;;
48327;SDS011;34136;51.022;7.082;2022-09-09T06:30:09;4.90;;;1.40;;
48327;SDS011;34136;51.022;7.082;2022-09-09T06:32:56;5.82;;;1.63;;
48327;SDS011;34136;51.022;7.082;2022-09-09T06:35:42;6.20;;;1.92;;
48327;SDS011;34136;51.022;7.082;2022-09-09T06:38:40;5.43;;;1.83;;
48327;SDS011;34136;51.022;7.082;2022-09-09T06:41:28;7.00;;;1.60;;
48327;SDS011;34136;51.022;7.082;2022-09-09T06:44:16;6.57;;;1.77;;
48327;SDS011;34136;51.022;7.082;2022-09-09T06:47:04;5.50;;;1.58;;
48327;SDS011;34136;51.022;7.082;2022-09-09T06:49:51;5.78;;;1.30;;
48327;SDS011;34136;51.022;7.082;2022-09-09T06:52:37;7.80;;;1.52;;
48327;SDS011;34136;51.022;7.082;2022-09-09T06:55:24;3.85;;;1.60;;
48327;SDS011;34136;51.022;7.082;2022-09-09T06:58:11;7.70;;;1.90;;
48327;SDS011;34136;51.022;7.082;2022-09-09T07:01:06;3.60;;;1.40;;
48327;SDS011;34136;51.022;7.082;2022-09-09T07:03:54;5.63;;;1.40;;
48327;SDS011;34136;51.022;7.082;2022-09-09T07:06:43;6.78;;;2.03;;
48327;SDS011;34136;51.022;7.082;2022-09-09T07:09:34;6.15;;;1.60;;
48327;SDS011;34136;51.022;7.082;2022-09-09T07:12:21;4.63;;;1.40;;
48327;SDS011;34136;51.022;7.082;2022-09-09T07:15:14;6.65;;;1.73;;
48327;SDS011;34136;51.022;7.082;2022-09-09T07:18:03;7.32;;;1.60;;
48327;SDS011;34136;51.022;7.082;2022-09-09T07:20:53;8.38;;;1.52;;
48327;SDS011;34136;51.022;7.082;2022-09-09T07:23:40;7.70;;;2.10;;
48327;SDS011;34136;51.022;7.082;2022-09-09T07:26:28;7.00;;;1.55;;
48327;SDS011;34136;51.022;7.082;2022-09-09T07:29:17;5.82;;;1.42;;
48327;SDS011;34136;51.022;7.082;2022-09-09T07:32:03;5.50;;;1.38;;
48327;SDS011;34136;51.022;7.082;2022-09-09T07:34:54;5.87;;;1.57;;
48327;SDS011;34136;51.022;7.082;2022-09-09T07:37:40;7.65;;;1.52;;
48327;SDS011;34136;51.022;7.082;2022-09-09T07:40:27;6.50;;;1.50;;
48327;SDS011;34136;51.022;7.082;2022-09-09T07:43:13;7.15;;;1.98;;
48327;SDS011;34136;51.022;7.082;2022-09-09T07:46:00;6.30;;;1.50;;
48327;SDS011;34136;51.022;7.082;2022-09-09T07:48:48;6.93;;;1.90;;
48327;SDS011;34136;51.022;7.082;2022-09-09T07:51:38;8.35;;;1.70;;
48327;SDS011;34136;51.022;7.082;2022-09-09T07:54:30;7.50;;;1.77;;
48327;SDS011;34136;51.022;7.082;2022-09-09T07:57:19;7.80;;;1.70;;
48327;SDS011;34136;51.022;7.082;2022-09-09T08:00:06;10.13;;;1.80;;
48327;SDS011;34136;51.022;7.082;2022-09-09T08:03:03;9.68;;;2.08;;
48327;SDS011;34136;51.022;7.082;2022-09-09T08:05:49;7.25;;;1.67;;
48327;SDS011;34136;51.022;7.082;2022-09-09T08:08:36;6.93;;;2.03;;
48327;SDS011;34136;51.022;7.082;2022-09-09T08:11:23;7.13;;;1.80;;
48327;SDS011;34136;51.022;7.082;2022-09-09T08:14:10;7.45;;;1.75;;
48327;SDS011;34136;51.022;7.082;2022-09-09T08:16:58;5.50;;;1.60;;
48327;SDS011;34136;51.022;7.082;2022-09-09T08:19:46;8.48;;;1.85;;
48327;SDS011;34136;51.022;7.082;2022-09-09T08:22:37;7.55;;;2.22;;
48327;SDS011;34136;51.022;7.082;2022-09-09T08:25:23;6.85;;;1.58;;
48327;SDS011;34136;51.022;7.082;2022-09-09T08:28:10;8.90;;;2.17;;
48327;SDS011;34136;51.022;7.082;2022-09-09T08:33:54;7.03;;;1.75;;
48327;SDS011;34136;51.022;7.082;2022-09-09T08:36:43;6.97;;;1.63;;
48327;SDS011;34136;51.022;7.082;2022-09-09T08:39:31;6.82;;;1.80;;
48327;SDS011;34136;51.022;7.082;2022-09-09T08:42:32;7.07;;;2.08;;
48327;SDS011;34136;51.022;7.082;2022-09-09T08:45:34;6.25;;;1.63;;
48327;SDS011;34136;51.022;7.082;2022-09-09T08:48:51;6.55;;;1.90;;
48327;SDS011;34136;51.022;7.082;2022-09-09T08:51:44;7.13;;;1.90;;
48327;SDS011;34136;51.022;7.082;2022-09-09T08:54:31;5.68;;;1.63;;
48327;SDS011;34136;51.022;7.082;2022-09-09T08:57:25;10.00;;;1.95;;
48327;SDS011;34136;51.022;7.082;2022-09-09T09:00:14;7.82;;;2.20;;
48327;SDS011;34136;51.022;7.082;2022-09-09T09:03:12;9.07;;;1.65;;
48327;SDS011;34136;51.022;7.082;2022-09-09T09:12:38;6.65;;;1.40;;
48327;SDS011;34136;51.022;7.082;2022-09-09T09:15:33;7.10;;;1.40;;
48327;SDS011;34136;51.022;7.082;2022-09-09T09:18:23;6.75;;;1.75;;
48327;SDS011;34136;51.022;7.082;2022-09-09T09:24:12;5.88;;;1.30;;
48327;SDS011;34136;51.022;7.082;2022-09-09T09:27:13;7.03;;;1.85;;
48327;SDS011;34136;51.022;7.082;2022-09-09T09:30:14;6.95;;;1.20;;
48327;SDS011;34136;51.022;7.082;2022-09-09T09:36:12;7.40;;;1.23;;
48327;SDS011;34136;51.022;7.082;2022-09-09T09:39:01;4.43;;;1.08;;
48327;SDS011;34136;51.022;7.082;2022-09-09T09:41:51;5.00;;;1.23;;
48327;SDS011;34136;51.022;7.082;2022-09-09T09:44:39;5.32;;;1.77;;
48327;SDS011;34136;51.022;7.082;2022-09-09T09:47:31;4.55;;;1.10;;
48327;SDS011;34136;51.022;7.082;2022-09-09T09:50:27;7.03;;;1.63;;
48327;SDS011;34136;51.022;7.082;2022-09-09T09:53:19;5.93;;;1.38;;
48327;SDS011;34136;51.022;7.082;2022-09-09T09:56:26;3.60;;;1.02;;
48327;SDS011;34136;51.022;7.082;2022-09-09T10:02:19;6.25;;;1.60;;
48327;SDS011;34136;51.022;7.082;2022-09-09T10:08:14;4.65;;;1.30;;
48327;SDS011;34136;51.022;7.082;2022-09-09T10:24:13;6.07;;;1.30;;
48327;SDS011;34136;51.022;7.082;2022-09-09T10:27:33;3.88;;;1.10;;
48327;SDS011;34136;51.022;7.082;2022-09-09T10:30:30;4.18;;;1.13;;
48327;SDS011;34136;51.022;7.082;2022-09-09T10:33:33;5.30;;;1.33;;
48327;SDS011;34136;51.022;7.082;2022-09-09T10:36:23;7.47;;;1.20;;
48327;SDS011;34136;51.022;7.082;2022-09-09T10:42:19;3.35;;;1.20;;
48327;SDS011;34136;51.022;7.082;2022-09-09T10:51:28;7.78;;;1.25;;
48327;SDS011;34136;51.022;7.082;2022-09-09T10:54:55;5.88;;;1.48;;
48327;SDS011;34136;51.022;7.082;2022-09-09T10:57:44;3.20;;;1.10;;
48327;SDS011;34136;51.022;7.082;2022-09-09T11:03:25;4.55;;;0.93;;
48327;SDS011;34136;51.022;7.082;2022-09-09T11:06:18;3.35;;;1.10;;
48327;SDS011;34136;51.022;7.082;2022-09-09T11:09:08;4.78;;;1.42;;
48327;SDS011;34136;51.022;7.082;2022-09-09T11:12:01;4.60;;;1.15;;
48327;SDS011;34136;51.022;7.082;2022-09-09T11:14:52;6.45;;;1.10;;
48327;SDS011;34136;51.022;7.082;2022-09-09T11:17:46;2.70;;;0.88;;
48327;SDS011;34136;51.022;7.082;2022-09-09T11:20:36;6.43;;;1.08;;
48327;SDS011;34136;51.022;7.082;2022-09-09T11:23:57;5.05;;;1.08;;
48327;SDS011;34136;51.022;7.082;2022-09-09T11:26:41;3.55;;;0.90;;
48327;SDS011;34136;51.022;7.082;2022-09-09T11:42:18;4.80;;;1.25;;
48327;SDS011;34136;51.022;7.082;2022-09-09T11:45:25;3.45;;;1.27;;
48327;SDS011;34136;51.022;7.082;2022-09-09T11:57:30;4.55;;;1.20;;
48327;SDS011;34136;51.022;7.082;2022-09-09T12:00:39;3.35;;;0.88;;
48327;SDS011;34136;51.022;7.082;2022-09-09T12:09:47;3.15;;;1.10;;
48327;SDS011;34136;51.022;7.082;2022-09-09T12:12:38;7.10;;;1.40;;
48327;SDS011;34136;51.022;7.082;2022-09-09T12:15:26;3.72;;;1.13;;
48327;SDS011;34136;51.022;7.082;2022-09-09T12:18:14;4.10;;;1.40;;
48327;SDS011;34136;51.022;7.082;2022-09-09T12:21:24;4.18;;;1.10;;
48327;SDS011;34136;51.022;7.082;2022-09-09T12:24:35;4.75;;;0.90;;
48327;SDS011;34136;51.022;7.082;2022-09-09T12:27:36;4.00;;;1.10;;
48327;SDS011;34136;51.022;7.082;2022-09-09T12:30:36;3.85;;;1.10;;
48327;SDS011;34136;51.022;7.082;2022-09-09T12:33:54;5.63;;;1.20;;
48327;SDS011;34136;51.022;7.082;2022-09-09T12:36:40;2.95;;;0.95;;
48327;SDS011;34136;51.022;7.082;2022-09-09T12:39:32;2.58;;;0.93;;
48327;SDS011;34136;51.022;7.082;2022-09-09T12:42:21;3.80;;;1.10;;
48327;SDS011;34136;51.022;7.082;2022-09-09T12:45:22;2.63;;;0.90;;
48327;SDS011;34136;51.022;7.082;2022-09-09T12:48:10;2.53;;;1.00;;
48327;SDS011;34136;51.022;7.082;2022-09-09T12:50:58;5.22;;;1.73;;
48327;SDS011;34136;51.022;7.082;2022-09-09T12:53:45;5.10;;;1.30;;
48327;SDS011;34136;51.022;7.082;2022-09-09T12:56:32;4.40;;;1.05;;
48327;SDS011;34136;51.022;7.082;2022-09-09T12:59:25;4.57;;;1.10;;
48327;SDS011;34136;51.022;7.082;2022-09-09T13:02:22;5.78;;;1.05;;
48327;SDS011;34136;51.022;7.082;2022-09-09T13:05:14;6.17;;;1.50;;
48327;SDS011;34136;51.022;7.082;2022-09-09T13:08:11;3.45;;;0.90;;
48327;SDS011;34136;51.022;7.082;2022-09-09T13:13:50;3.75;;;1.20;;
48327;SDS011;34136;51.022;7.082;2022-09-09T13:16:41;3.22;;;0.95;;
48327;SDS011;34136;51.022;7.082;2022-09-09T13:19:29;3.58;;;0.95;;
48327;SDS011;34136;51.022;7.082;2022-09-09T13:22:34;3.42;;;1.05;;
48327;SDS011;34136;51.022;7.082;2022-09-09T13:25:26;4.50;;;1.10;;
48327;SDS011;34136;51.022;7.082;2022-09-09T13:28:20;4.05;;;1.15;;
48327;SDS011;34136;51.022;7.082;2022-09-09T13:31:29;2.92;;;0.90;;
48327;SDS011;34136;51.022;7.082;2022-09-09T13:34:29;5.15;;;1.27;;
48327;SDS011;34136;51.022;7.082;2022-09-09T13:37:33;6.50;;;1.33;;
48327;SDS011;34136;51.022;7.082;2022-09-09T13:40:22;3.30;;;1.02;;
48327;SDS011;34136;51.022;7.082;2022-09-09T13:43:16;5.60;;;1.25;;
48327;SDS011;34136;51.022;7.082;2022-09-09T13:46:27;4.15;;;1.30;;
48327;SDS011;34136;51.022;7.082;2022-09-09T13:49:22;5.90;;;1.30;;
48327;SDS011;34136;51.022;7.082;2022-09-09T13:52:13;4.20;;;1.17;;
48327;SDS011;34136;51.022;7.082;2022-09-09T13:55:03;4.30;;;1.17;;
48327;SDS011;34136;51.022;7.082;2022-09-09T13:58:00;4.38;;;1.15;;
48327;SDS011;34136;51.022;7.082;2022-09-09T14:00:47;4.47;;;1.50;;
48327;SDS011;34136;51.022;7.082;2022-09-09T14:03:34;5.50;;;1.50;;
48327;SDS011;34136;51.022;7.082;2022-09-09T14:06:20;5.53;;;2.33;;
48327;SDS011;34136;51.022;7.082;2022-09-09T14:09:07;5.80;;;1.80;;
48327;SDS011;34136;51.022;7.082;2022-09-09T14:11:58;5.38;;;1.50;;
48327;SDS011;34136;51.022;7.082;2022-09-09T14:14:44;7.53;;;1.40;;
48327;SDS011;34136;51.022;7.082;2022-09-09T14:17:49;4.60;;;0.90;;
48327;SDS011;34136;51.022;7.082;2022-09-09T14:20:48;4.90;;;1.50;;
48327;SDS011;34136;51.022;7.082;2022-09-09T14:23:35;3.00;;;1.02;;
48327;SDS011;34136;51.022;7.082;2022-09-09T14:26:21;6.00;;;0.98;;
48327;SDS011;34136;51.022;7.082;2022-09-09T14:29:08;3.17;;;0.80;;
48327;SDS011;34136;51.022;7.082;2022-09-09T14:31:54;4.15;;;0.95;;
48327;SDS011;34136;51.022;7.082;2022-09-09T14:34:41;2.58;;;0.73;;
48327;SDS011;34136;51.022;7.082;2022-09-09T14:37:27;5.53;;;1.00;;
48327;SDS011;34136;51.022;7.082;2022-09-09T14:40:14;4.18;;;0.93;;
48327;SDS011;34136;51.022;7.082;2022-09-09T14:43:00;2.35;;;0.80;;
48327;SDS011;34136;51.022;7.082;2022-09-09T14:45:47;1.98;;;0.70;;
48327;SDS011;34136;51.022;7.082;2022-09-09T14:48:33;7.63;;;1.30;;
48327;SDS011;34136;51.022;7.082;2022-09-09T14:51:20;2.92;;;1.13;;
48327;SDS011;34136;51.022;7.082;2022-09-09T14:54:08;3.70;;;1.00;;
48327;SDS011;34136;51.022;7.082;2022-09-09T14:56:55;5.22;;;1.35;;
48327;SDS011;34136;51.022;7.082;2022-09-09T14:59:41;7.35;;;1.30;;
48327;SDS011;34136;51.022;7.082;2022-09-09T15:02:27;3.80;;;1.00;;
48327;SDS011;34136;51.022;7.082;2022-09-09T15:05:14;2.60;;;0.90;;
48327;SDS011;34136;51.022;7.082;2022-09-09T15:08:00;4.00;;;0.80;;
48327;SDS011;34136;51.022;7.082;2022-09-09T15:10:46;2.05;;;0.80;;
48327;SDS011;34136;51.022;7.082;2022-09-09T15:13:35;2.80;;;0.90;;
48327;SDS011;34136;51.022;7.082;2022-09-09T15:16:23;2.08;;;0.90;;
48327;SDS011;34136;51.022;7.082;2022-09-09T15:19:11;1.83;;;0.65;;
48327;SDS011;34136;51.022;7.082;2022-09-09T15:21:57;3.53;;;0.90;;
48327;SDS011;34136;51.022;7.082;2022-09-09T15:24:44;4.68;;;0.95;;
48327;SDS011;34136;51.022;7.082;2022-09-09T15:27:30;2.92;;;1.13;;
48327;SDS011;34136;51.022;7.082;2022-09-09T15:30:16;2.75;;;0.85;;
48327;SDS011;34136;51.022;7.082;2022-09-09T15:33:07;3.50;;;1.42;;
48327;SDS011;34136;51.022;7.082;2022-09-09T15:35:54;3.78;;;1.10;;
48327;SDS011;34136;51.022;7.082;2022-09-09T15:38:40;2.78;;;1.02;;
48327;SDS011;34136;51.022;7.082;2022-09-09T15:41:27;4.75;;;1.10;;
48327;SDS011;34136;51.022;7.082;2022-09-09T15:44:15;4.43;;;1.17;;
48327;SDS011;34136;51.022;7.082;2022-09-09T15:47:01;4.05;;;1.45;;
48327;SDS011;34136;51.022;7.082;2022-09-09T15:49:47;3.45;;;1.10;;
48327;SDS011;34136;51.022;7.082;2022-09-09T15:52:33;3.97;;;1.17;;
48327;SDS011;34136;51.022;7.082;2022-09-09T15:55:20;3.30;;;1.40;;
48327;SDS011;34136;51.022;7.082;2022-09-09T15:58:06;4.78;;;1.25;;
48327;SDS011;34136;51.022;7.082;2022-09-09T16:00:52;3.33;;;1.02;;
48327;SDS011;34136;51.022;7.082;2022-09-09T16:03:39;2.35;;;1.15;;
48327;SDS011;34136;51.022;7.082;2022-09-09T16:06:27;4.00;;;1.40;;
48327;SDS011;34136;51.022;7.082;2022-09-09T16:09:14;4.18;;;1.33;;
48327;SDS011;34136;51.022;7.082;2022-09-09T16:12:01;2.80;;;1.30;;
48327;SDS011;34136;51.022;7.082;2022-09-09T16:14:49;3.08;;;0.98;;
48327;SDS011;34136;51.022;7.082;2022-09-09T16:17:35;4.57;;;1.30;;
48327;SDS011;34136;51.022;7.082;2022-09-09T16:20:21;3.60;;;1.00;;
48327;SDS011;34136;51.022;7.082;2022-09-09T16:23:07;4.40;;;1.00;;
48327;SDS011;34136;51.022;7.082;2022-09-09T16:25:57;3.17;;;0.95;;
48327;SDS011;34136;51.022;7.082;2022-09-09T16:28:43;2.33;;;0.90;;
48327;SDS011;34136;51.022;7.082;2022-09-09T16:31:30;1.98;;;0.80;;
48327;SDS011;34136;51.022;7.082;2022-09-09T16:34:17;3.20;;;0.88;;
48327;SDS011;34136;51.022;7.082;2022-09-09T16:37:04;2.00;;;0.70;;
48327;SDS011;34136;51.022;7.082;2022-09-09T16:39:50;2.72;;;0.88;;
48327;SDS011;34136;51.022;7.082;2022-09-09T16:42:36;3.85;;;1.33;;
48327;SDS011;34136;51.022;7.082;2022-09-09T16:45:23;1.75;;;0.73;;
48327;SDS011;34136;51.022;7.082;2022-09-09T16:48:09;3.47;;;1.02;;
48327;SDS011;34136;51.022;7.082;2022-09-09T16:51:00;3.05;;;0.70;;
48327;SDS011;34136;51.022;7.082;2022-09-09T16:53:49;2.38;;;0.82;;
48327;SDS011;34136;51.022;7.082;2022-09-09T16:56:38;1.92;;;0.70;;
48327;SDS011;34136;51.022;7.082;2022-09-09T16:59:25;2.40;;;0.82;;
48327;SDS011;34136;51.022;7.082;2022-09-09T17:02:12;4.20;;;1.02;;
48327;SDS011;34136;51.022;7.082;2022-09-09T17:04:58;2.17;;;0.85;;
48327;SDS011;34136;51.022;7.082;2022-09-09T17:07:44;2.08;;;0.88;;
48327;SDS011;34136;51.022;7.082;2022-09-09T17:10:30;3.20;;;1.73;;
48327;SDS011;34136;51.022;7.082;2022-09-09T17:13:16;3.03;;;1.38;;
48327;SDS011;34136;51.022;7.082;2022-09-09T17:16:03;3.10;;;1.30;;
48327;SDS011;34136;51.022;7.082;2022-09-09T17:18:50;4.20;;;1.42;;
48327;SDS011;34136;51.022;7.082;2022-09-09T17:21:37;5.22;;;1.52;;
48327;SDS011;34136;51.022;7.082;2022-09-09T17:24:24;3.65;;;1.08;;
48327;SDS011;34136;51.022;7.082;2022-09-09T17:27:14;3.22;;;1.35;;
48327;SDS011;34136;51.022;7.082;2022-09-09T17:30:00;3.47;;;1.40;;
48327;SDS011;34136;51.022;7.082;2022-09-09T17:32:47;4.32;;;1.20;;
48327;SDS011;34136;51.022;7.082;2022-09-09T17:35:33;3.17;;;1.33;;
48327;SDS011;34136;51.022;7.082;2022-09-09T17:38:24;2.63;;;1.05;;
48327;SDS011;34136;51.022;7.082;2022-09-09T17:41:19;3.90;;;1.25;;
48327;SDS011;34136;51.022;7.082;2022-09-09T17:44:07;2.75;;;1.20;;
48327;SDS011;34136;51.022;7.082;2022-09-09T17:46:54;3.38;;;1.10;;
48327;SDS011;34136;51.022;7.082;2022-09-09T17:49:41;3.40;;;1.50;;
48327;SDS011;34136;51.022;7.082;2022-09-09T17:52:27;3.42;;;1.55;;
48327;SDS011;34136;51.022;7.082;2022-09-09T17:55:13;4.00;;;1.08;;
48327;SDS011;34136;51.022;7.082;2022-09-09T17:57:59;5.00;;;1.55;;
48327;SDS011;34136;51.022;7.082;2022-09-09T18:00:45;3.85;;;1.40;;
48327;SDS011;34136;51.022;7.082;2022-09-09T18:03:34;6.07;;;1.55;;
48327;SDS011;34136;51.022;7.082;2022-09-09T18:06:25;4.13;;;1.30;;
48327;SDS011;34136;51.022;7.082;2022-09-09T18:09:14;4.07;;;1.83;;
48327;SDS011;34136;51.022;7.082;2022-09-09T18:12:05;4.22;;;1.45;;
48327;SDS011;34136;51.022;7.082;2022-09-09T18:14:51;2.95;;;1.30;;
48327;SDS011;34136;51.022;7.082;2022-09-09T18:17:38;4.35;;;1.42;;
48327;SDS011;34136;51.022;7.082;2022-09-09T18:20:24;4.38;;;1.58;;
48327;SDS011;34136;51.022;7.082;2022-09-09T18:23:11;3.70;;;1.70;;
48327;SDS011;34136;51.022;7.082;2022-09-09T18:25:57;6.10;;;1.77;;
48327;SDS011;34136;51.022;7.082;2022-09-09T18:28:46;7.72;;;1.70;;
48327;SDS011;34136;51.022;7.082;2022-09-09T18:31:34;5.22;;;1.70;;
48327;SDS011;34136;51.022;7.082;2022-09-09T18:34:21;4.05;;;1.52;;
48327;SDS011;34136;51.022;7.082;2022-09-09T18:37:09;5.90;;;1.42;;
48327;SDS011;34136;51.022;7.082;2022-09-09T18:39:55;3.08;;;1.48;;
48327;SDS011;34136;51.022;7.082;2022-09-09T18:42:41;5.78;;;1.70;;
48327;SDS011;34136;51.022;7.082;2022-09-09T18:45:27;4.45;;;1.85;;
48327;SDS011;34136;51.022;7.082;2022-09-09T18:48:13;3.42;;;1.60;;
48327;SDS011;34136;51.022;7.082;2022-09-09T18:51:01;4.88;;;1.70;;